createdAt,value
2023-03-13T00:02:34.275Z,8.64
2023-03-13T00:07:35.516Z,8.74
2023-03-13T00:12:36.761Z,8.88
2023-03-13T00:17:37.928Z,8.99
2023-03-13T00:22:39.164Z,9.08
2023-03-13T00:27:40.310Z,9.24
2023-03-13T00:32:41.859Z,9.37
2023-03-13T00:37:43.106Z,9.43
2023-03-13T00:42:44.241Z,9.43
2023-03-13T00:47:45.420Z,9.46
2023-03-13T00:52:46.591Z,9.51
2023-03-13T00:57:47.718Z,9.48
2023-03-13T01:02:48.970Z,9.42
2023-03-13T01:07:50.988Z,9.36
2023-03-13T01:12:52.178Z,9.32
2023-03-13T01:17:53.344Z,9.31
2023-03-13T01:22:54.513Z,9.27
2023-03-13T01:27:55.730Z,9.28
2023-03-13T01:32:56.995Z,9.25
2023-03-13T01:37:58.187Z,9.24
2023-03-13T01:42:59.472Z,9.24
2023-03-13T01:48:00.655Z,9.22
2023-03-13T01:53:02.861Z,9.18
2023-03-13T01:58:04.058Z,9.21
2023-03-13T02:03:05.241Z,9.19
2023-03-13T02:08:06.456Z,9.21
2023-03-13T02:13:07.899Z,9.24
2023-03-13T02:18:09.117Z,9.28
2023-03-13T02:23:10.331Z,9.32
2023-03-13T02:28:11.501Z,9.32
2023-03-13T02:33:12.659Z,9.31
2023-03-13T02:38:13.917Z,9.31
2023-03-13T02:43:15.122Z,9.32
2023-03-13T02:48:16.333Z,9.31
2023-03-13T02:53:17.504Z,9.24
2023-03-13T02:58:18.659Z,9.24
2023-03-13T03:03:19.914Z,9.21
2023-03-13T03:08:21.298Z,9.20
2023-03-13T03:13:22.572Z,9.19
2023-03-13T03:18:23.925Z,9.19
2023-03-13T03:23:25.130Z,9.17
2023-03-13T03:28:26.280Z,9.18
2023-03-13T03:33:27.540Z,9.19
2023-03-13T03:38:28.730Z,9.19
2023-03-13T03:43:29.947Z,9.21
2023-03-13T03:48:31.276Z,9.25
2023-03-13T03:53:32.461Z,9.29
2023-03-13T03:58:33.625Z,9.33
2023-03-13T04:03:34.880Z,9.35
2023-03-13T04:08:36.092Z,9.42
2023-03-13T04:13:37.280Z,9.48
2023-03-13T04:18:38.478Z,9.50
2023-03-13T04:23:39.687Z,9.57
2023-03-13T04:28:40.824Z,9.63
2023-03-13T04:33:42.075Z,9.63
2023-03-13T04:38:43.319Z,9.63
2023-03-13T04:43:44.544Z,9.67
2023-03-13T04:48:46.779Z,9.66
2023-03-13T04:53:47.932Z,9.64
2023-03-13T04:58:49.132Z,9.66
2023-03-13T05:03:50.348Z,9.66
2023-03-13T05:08:51.482Z,9.65
2023-03-13T05:13:52.736Z,9.71
2023-03-13T05:18:53.881Z,9.75
2023-03-13T05:23:55.183Z,9.79
2023-03-13T05:28:56.398Z,9.84
2023-03-13T05:33:57.598Z,9.90
2023-03-13T05:38:58.758Z,10.01
2023-03-13T05:44:00.003Z,10.03
2023-03-13T05:49:01.245Z,10.09
2023-03-13T05:54:02.417Z,10.16
2023-03-13T05:59:03.614Z,10.23
2023-03-13T06:04:04.857Z,10.26
2023-03-13T06:09:06.078Z,10.31
2023-03-13T06:14:07.268Z,10.39
2023-03-13T06:19:08.513Z,10.48
2023-03-13T06:24:09.642Z,10.61
2023-03-13T06:29:10.867Z,10.64
2023-03-13T06:34:12.026Z,10.73
2023-03-13T06:39:13.293Z,10.86
2023-03-13T06:44:14.490Z,11.04
2023-03-13T06:49:15.700Z,11.11
2023-03-13T06:54:16.930Z,11.30
2023-03-13T06:59:18.122Z,11.41
2023-03-13T07:04:20.039Z,11.47
2023-03-13T07:09:21.360Z,11.58
2023-03-13T07:14:22.558Z,11.68
2023-03-13T07:19:23.749Z,11.72
2023-03-13T07:24:25.009Z,11.85
2023-03-13T07:29:26.338Z,11.96
2023-03-13T07:34:27.547Z,11.99
2023-03-13T07:39:28.742Z,12.12
2023-03-13T07:44:29.966Z,12.21
2023-03-13T07:49:31.145Z,12.38
2023-03-13T07:54:32.366Z,12.50
2023-03-13T07:59:33.611Z,12.60
2023-03-13T08:04:34.785Z,12.60
2023-03-13T08:09:35.984Z,12.62
2023-03-13T08:14:37.192Z,12.65
2023-03-13T08:19:38.936Z,12.78
2023-03-13T08:24:40.135Z,12.46
2023-03-13T08:29:41.362Z,12.79
2023-03-13T08:34:42.600Z,12.88
2023-03-13T08:39:45.486Z,12.89
2023-03-13T08:44:46.689Z,12.84
2023-03-13T08:49:47.893Z,12.87
2023-03-13T08:54:49.113Z,12.81
2023-03-13T08:59:51.398Z,12.75
2023-03-13T09:04:52.597Z,12.72
2023-03-13T09:09:53.846Z,12.77
2023-03-13T09:14:55.007Z,12.84
2023-03-13T09:20:00.545Z,12.84
2023-03-13T09:25:02.294Z,12.84
2023-03-13T09:30:03.503Z,13.08
2023-03-13T09:35:07.701Z,13.13
2023-03-13T09:40:08.964Z,13.20
2023-03-13T09:45:10.184Z,13.27
2023-03-13T09:50:11.400Z,13.25
2023-03-13T09:55:12.543Z,13.18
2023-03-13T10:00:14.534Z,13.68
2023-03-13T10:05:15.746Z,13.81
2023-03-13T10:10:18.026Z,13.81
2023-03-13T10:15:19.194Z,14.01
2023-03-13T10:20:20.425Z,14.06
2023-03-13T10:25:21.646Z,14.18
2023-03-13T10:30:23.092Z,14.56
2023-03-13T10:35:24.300Z,14.87
2023-03-13T10:40:25.491Z,14.81
2023-03-13T10:45:26.763Z,14.62
2023-03-13T10:50:28.013Z,14.59
2023-03-13T10:55:29.205Z,14.59
2023-03-13T11:00:30.433Z,14.95
2023-03-13T11:05:31.718Z,15.30
2023-03-13T11:10:37.009Z,15.40
2023-03-13T11:15:38.174Z,15.46
2023-03-13T11:20:39.367Z,15.48
2023-03-13T11:25:40.635Z,15.67
2023-03-13T11:30:41.843Z,15.64
2023-03-13T11:35:43.073Z,15.49
2023-03-13T11:40:44.265Z,15.32
2023-03-13T11:45:45.527Z,15.39
2023-03-13T11:50:46.917Z,15.47
2023-03-13T11:55:48.151Z,15.54
2023-03-13T12:00:49.466Z,15.70
2023-03-13T12:05:51.651Z,15.94
2023-03-13T12:10:52.850Z,15.79
2023-03-13T12:15:54.060Z,15.73
2023-03-13T12:20:55.944Z,15.74
2023-03-13T12:25:57.132Z,15.72
2023-03-13T12:30:58.473Z,15.84
2023-03-13T12:35:59.774Z,16.15
2023-03-13T12:41:01.014Z,16.35
2023-03-13T12:46:02.386Z,16.25
2023-03-13T12:51:03.646Z,16.40
2023-03-13T12:56:04.835Z,16.48
2023-03-13T13:01:06.029Z,16.63
2023-03-13T13:06:07.249Z,16.44
2023-03-13T13:11:08.492Z,16.42
2023-03-13T13:16:09.739Z,16.39
2023-03-13T13:21:11.014Z,16.24
2023-03-13T13:26:12.255Z,16.21
2023-03-13T13:31:13.696Z,16.09
2023-03-13T13:36:15.741Z,15.93
2023-03-13T13:41:17.071Z,15.79
2023-03-13T13:46:18.379Z,15.73
2023-03-13T13:51:20.300Z,15.76
2023-03-13T13:56:21.575Z,15.90
2023-03-13T14:01:22.845Z,16.10
2023-03-13T14:06:24.135Z,16.25
2023-03-13T14:11:25.362Z,16.19
2023-03-13T14:16:26.658Z,16.22
2023-03-13T14:21:28.271Z,16.30
2023-03-13T14:26:30.320Z,16.49
2023-03-13T14:31:31.622Z,16.41
2023-03-13T14:36:32.852Z,16.24
2023-03-13T14:41:34.141Z,15.94
2023-03-13T14:46:35.485Z,15.83
2023-03-13T14:51:37.915Z,15.72
2023-03-13T14:56:42.119Z,15.62
2023-03-13T15:01:43.339Z,15.57
2023-03-13T15:06:44.582Z,15.51
2023-03-13T15:11:45.826Z,15.51
2023-03-13T15:16:47.134Z,15.49
2023-03-13T15:21:48.476Z,15.43
2023-03-13T15:26:49.766Z,15.42
2023-03-13T15:31:51.049Z,15.50
2023-03-13T15:36:52.391Z,15.66
2023-03-13T15:41:54.111Z,15.57
2023-03-13T15:46:55.467Z,15.57
2023-03-13T15:51:57.909Z,15.65
2023-03-13T15:56:59.244Z,15.72
2023-03-13T16:02:00.433Z,16.08
2023-03-13T16:07:01.680Z,16.39
2023-03-13T16:12:02.914Z,16.37
2023-03-13T16:17:04.084Z,16.14
2023-03-13T16:22:05.274Z,15.83
2023-03-13T16:27:06.462Z,15.60
2023-03-13T16:32:07.750Z,15.45
2023-03-13T16:37:09.084Z,15.23
2023-03-13T16:42:10.498Z,15.07
2023-03-13T16:47:11.866Z,14.97
2023-03-13T16:52:13.703Z,14.82
2023-03-13T16:57:14.873Z,14.70
2023-03-13T17:02:16.111Z,14.52
2023-03-13T17:07:17.357Z,14.41
2023-03-13T17:12:18.887Z,14.44
2023-03-13T17:17:20.175Z,14.41
2023-03-13T17:22:21.422Z,14.41
2023-03-13T17:27:22.593Z,14.44
2023-03-13T17:32:25.163Z,14.32
2023-03-13T17:37:26.880Z,14.14
2023-03-13T17:42:33.674Z,14.04
2023-03-13T17:47:34.800Z,13.89
2023-03-13T17:52:36.009Z,13.75
2023-03-13T17:57:37.452Z,13.66
2023-03-13T18:02:39.024Z,13.51
2023-03-13T18:07:44.091Z,13.26
2023-03-13T18:12:45.306Z,13.13
2023-03-13T18:17:46.520Z,13.32
2023-03-13T18:22:47.915Z,13.33
2023-03-13T18:27:49.169Z,13.22
2023-03-13T18:32:50.412Z,13.06
2023-03-13T18:37:51.628Z,12.99
2023-03-13T18:42:52.774Z,13.16
2023-03-13T18:47:53.969Z,13.22
2023-03-13T18:52:55.416Z,13.17
2023-03-13T18:57:56.799Z,13.05
2023-03-13T19:02:58.044Z,12.94
2023-03-13T19:07:59.313Z,12.91
2023-03-13T19:13:00.613Z,12.86
2023-03-13T19:18:03.338Z,12.77
2023-03-13T19:23:04.894Z,12.62
2023-03-13T19:28:06.074Z,12.57
2023-03-13T19:33:07.201Z,12.48
2023-03-13T19:38:08.336Z,12.32
2023-03-13T19:43:09.602Z,12.15
2023-03-13T19:48:10.929Z,12.02
2023-03-13T19:53:12.096Z,11.85
2023-03-13T19:58:13.242Z,11.70
2023-03-13T20:03:14.471Z,11.57
2023-03-13T20:08:15.685Z,11.46
2023-03-13T20:13:16.894Z,11.37
2023-03-13T20:18:18.153Z,11.26
2023-03-13T20:23:19.321Z,11.18
2023-03-13T20:28:20.478Z,11.15
2023-03-13T20:33:21.802Z,11.14
2023-03-13T20:38:23.034Z,11.12
2023-03-13T20:43:24.259Z,11.00
2023-03-13T20:48:26.142Z,10.95
2023-03-13T20:53:27.317Z,10.84
2023-03-13T20:58:28.530Z,10.77
2023-03-13T21:03:32.113Z,10.75
2023-03-13T21:08:33.390Z,10.66
2023-03-13T21:13:34.630Z,10.63
2023-03-13T21:18:35.804Z,10.59
2023-03-13T21:23:37.136Z,10.59
2023-03-13T21:28:38.315Z,10.50
2023-03-13T21:33:39.552Z,10.41
2023-03-13T21:38:40.736Z,10.24
2023-03-13T21:43:41.885Z,10.08
2023-03-13T21:48:43.126Z,10.09
2023-03-13T21:53:44.423Z,10.21
2023-03-13T21:58:45.763Z,10.25
2023-03-13T22:03:47.067Z,10.52
2023-03-13T22:08:48.313Z,10.71
2023-03-13T22:13:49.505Z,10.82
2023-03-13T22:18:50.700Z,10.92
2023-03-13T22:23:51.826Z,10.90
2023-03-13T22:28:52.957Z,10.88
2023-03-13T22:33:54.095Z,10.71
2023-03-13T22:38:55.243Z,10.51
2023-03-13T22:43:56.423Z,10.35
2023-03-13T22:48:57.614Z,10.20
2023-03-13T22:53:58.910Z,10.07
2023-03-13T22:59:00.156Z,9.95
2023-03-13T23:04:01.440Z,9.88
2023-03-13T23:09:03.273Z,9.83
2023-03-13T23:14:04.456Z,9.84
2023-03-13T23:19:07.241Z,9.84
2023-03-13T23:24:08.415Z,9.90
2023-03-13T23:29:09.543Z,9.96
2023-03-13T23:34:10.752Z,10.01
2023-03-13T23:39:11.894Z,9.94
2023-03-13T23:44:13.070Z,9.97
2023-03-13T23:49:14.322Z,10.06
2023-03-13T23:54:15.493Z,10.09
2023-03-13T23:59:16.744Z,10.04
